sensor_id;sensor_type;location;lat;lon;timestamp;pressure;altitude;pressure_sealevel;temperature;humidity
63779;BME280;49923;55.970;37.516;2022-07-06T04:36:12;99579.88;;;22.98;70.91
63779;BME280;49923;55.970;37.516;2022-07-06T04:38:38;99575.00;;;22.84;70.64
63779;BME280;49923;55.970;37.516;2022-07-06T04:41:04;99580.75;;;22.79;70.38
63779;BME280;49923;55.970;37.516;2022-07-06T04:43:30;99573.34;;;23.02;70.64
63779;BME280;49923;55.970;37.516;2022-07-06T04:45:56;99584.25;;;23.09;70.16
63779;BME280;49923;55.970;37.516;2022-07-06T04:48:23;99573.59;;;22.99;70.44
63779;BME280;49923;55.970;37.516;2022-07-06T04:50:48;99581.56;;;23.18;70.24
63779;BME280;49923;55.970;37.516;2022-07-06T04:53:14;99581.28;;;23.31;70.34
63779;BME280;49923;55.970;37.516;2022-07-06T04:55:40;99579.88;;;23.37;70.30
63779;BME280;49923;55.970;37.516;2022-07-06T04:58:06;99583.91;;;23.41;70.40
63779;BME280;49923;55.970;37.516;2022-07-06T05:00:32;99580.97;;;23.44;70.25
63779;BME280;49923;55.970;37.516;2022-07-06T05:02:58;99575.25;;;23.48;70.28
63779;BME280;49923;55.970;37.516;2022-07-06T05:05:24;99576.22;;;23.38;71.40
63779;BME280;49923;55.970;37.516;2022-07-06T05:07:50;99576.91;;;23.40;71.76
63779;BME280;49923;55.970;37.516;2022-07-06T05:10:16;99575.25;;;23.48;70.97
63779;BME280;49923;55.970;37.516;2022-07-06T05:12:42;99581.81;;;23.44;70.95
63779;BME280;49923;55.970;37.516;2022-07-06T05:15:08;99578.59;;;23.21;70.81
63779;BME280;49923;55.970;37.516;2022-07-06T05:17:34;99570.78;;;23.30;71.45
63779;BME280;49923;55.970;37.516;2022-07-06T05:20:00;99568.38;;;23.55;70.36
63779;BME280;49923;55.970;37.516;2022-07-06T05:22:26;99567.22;;;23.67;70.09
63779;BME280;49923;55.970;37.516;2022-07-06T05:24:52;99570.88;;;23.57;70.87
63779;BME280;49923;55.970;37.516;2022-07-06T05:27:19;99567.06;;;23.69;70.55
63779;BME280;49923;55.970;37.516;2022-07-06T05:29:45;99567.31;;;23.76;70.24
63779;BME280;49923;55.970;37.516;2022-07-06T05:32:11;99564.72;;;23.66;70.45
63779;BME280;49923;55.970;37.516;2022-07-06T05:34:37;99570.63;;;23.87;69.44
63779;BME280;49923;55.970;37.516;2022-07-06T05:37:03;99557.13;;;23.71;69.69
63779;BME280;49923;55.970;37.516;2022-07-06T05:39:29;99565.31;;;23.87;69.29
63779;BME280;49923;55.970;37.516;2022-07-06T05:41:55;99567.28;;;23.48;69.57
63779;BME280;49923;55.970;37.516;2022-07-06T05:44:21;99570.63;;;23.31;71.15
63779;BME280;49923;55.970;37.516;2022-07-06T05:46:47;99569.50;;;23.53;70.52
63779;BME280;49923;55.970;37.516;2022-07-06T05:49:13;99568.53;;;23.44;68.40
63779;BME280;49923;55.970;37.516;2022-07-06T05:51:57;99570.34;;;23.34;69.23
63779;BME280;49923;55.970;37.516;2022-07-06T05:54:23;99565.88;;;23.44;68.49
63779;BME280;49923;55.970;37.516;2022-07-06T05:56:49;99568.72;;;23.80;68.81
63779;BME280;49923;55.970;37.516;2022-07-06T05:59:15;99557.66;;;23.84;68.83
63779;BME280;49923;55.970;37.516;2022-07-06T06:01:41;99562.66;;;23.87;69.08
63779;BME280;49923;55.970;37.516;2022-07-06T06:04:07;99557.78;;;24.10;68.49
63779;BME280;49923;55.970;37.516;2022-07-06T06:06:33;99548.75;;;24.30;67.75
63779;BME280;49923;55.970;37.516;2022-07-06T06:08:59;99550.13;;;24.34;67.36
63779;BME280;49923;55.970;37.516;2022-07-06T06:11:25;99547.72;;;24.41;67.44
63779;BME280;49923;55.970;37.516;2022-07-06T06:13:50;99543.94;;;24.61;67.04
63779;BME280;49923;55.970;37.516;2022-07-06T06:16:16;99548.44;;;24.78;66.73
63779;BME280;49923;55.970;37.516;2022-07-06T06:18:42;99543.88;;;24.88;66.28
63779;BME280;49923;55.970;37.516;2022-07-06T06:21:09;99543.50;;;25.01;65.62
63779;BME280;49923;55.970;37.516;2022-07-06T06:23:35;99544.56;;;25.08;65.61
63779;BME280;49923;55.970;37.516;2022-07-06T06:26:01;99544.69;;;25.07;65.33
63779;BME280;49923;55.970;37.516;2022-07-06T06:28:27;99546.66;;;25.22;65.21
63779;BME280;49923;55.970;37.516;2022-07-06T06:30:53;99539.72;;;25.29;64.63
63779;BME280;49923;55.970;37.516;2022-07-06T06:33:20;99538.22;;;25.27;64.23
63779;BME280;49923;55.970;37.516;2022-07-06T06:35:51;99540.44;;;24.61;63.16
63779;BME280;49923;55.970;37.516;2022-07-06T06:38:19;99545.56;;;24.90;65.04
63779;BME280;49923;55.970;37.516;2022-07-06T06:40:45;99539.44;;;25.15;64.60
63779;BME280;49923;55.970;37.516;2022-07-06T06:43:11;99536.81;;;24.97;64.85
63779;BME280;49923;55.970;37.516;2022-07-06T06:45:38;99531.72;;;25.29;64.97
63779;BME280;49923;55.970;37.516;2022-07-06T06:48:04;99542.25;;;25.39;63.72
63779;BME280;49923;55.970;37.516;2022-07-06T06:50:30;99537.06;;;25.55;63.34
63779;BME280;49923;55.970;37.516;2022-07-06T06:52:56;99537.31;;;25.70;63.24
63779;BME280;49923;55.970;37.516;2022-07-06T06:55:23;99539.31;;;25.68;62.34
63779;BME280;49923;55.970;37.516;2022-07-06T06:57:49;99538.91;;;25.89;61.38
63779;BME280;49923;55.970;37.516;2022-07-06T07:00:15;99538.91;;;25.89;61.79
63779;BME280;49923;55.970;37.516;2022-07-06T07:02:41;99534.28;;;25.91;62.02
63779;BME280;49923;55.970;37.516;2022-07-06T07:05:07;99542.38;;;25.81;59.98
63779;BME280;49923;55.970;37.516;2022-07-06T07:07:33;99539.97;;;25.96;61.83
63779;BME280;49923;55.970;37.516;2022-07-06T07:10:00;99536.38;;;25.79;59.10
63779;BME280;49923;55.970;37.516;2022-07-06T07:12:28;99542.06;;;25.84;61.25
63779;BME280;49923;55.970;37.516;2022-07-06T07:14:54;99536.31;;;26.05;59.52
63779;BME280;49923;55.970;37.516;2022-07-06T07:17:20;99533.00;;;26.03;59.18
63779;BME280;49923;55.970;37.516;2022-07-06T07:19:46;99534.09;;;26.26;59.10
63779;BME280;49923;55.970;37.516;2022-07-06T07:22:12;99542.63;;;26.46;60.04
63779;BME280;49923;55.970;37.516;2022-07-06T07:24:38;99545.19;;;26.56;59.66
63779;BME280;49923;55.970;37.516;2022-07-06T07:27:04;99532.31;;;26.59;57.92
63779;BME280;49923;55.970;37.516;2022-07-06T07:29:31;99531.84;;;26.72;58.64
63779;BME280;49923;55.970;37.516;2022-07-06T07:31:56;99536.53;;;26.86;57.22
63779;BME280;49923;55.970;37.516;2022-07-06T07:34:22;99531.00;;;26.71;56.37
63779;BME280;49923;55.970;37.516;2022-07-06T07:36:48;99537.38;;;26.78;55.89
63779;BME280;49923;55.970;37.516;2022-07-06T07:39:14;99528.38;;;26.96;55.34
63779;BME280;49923;55.970;37.516;2022-07-06T07:41:40;99534.38;;;27.14;56.13
63779;BME280;49923;55.970;37.516;2022-07-06T07:44:06;99534.22;;;26.99;55.95
63779;BME280;49923;55.970;37.516;2022-07-06T07:46:32;99537.19;;;27.37;53.94
63779;BME280;49923;55.970;37.516;2022-07-06T07:48:58;99530.19;;;27.36;50.91
63779;BME280;49923;55.970;37.516;2022-07-06T07:51:23;99531.00;;;27.60;54.54
63779;BME280;49923;55.970;37.516;2022-07-06T07:53:49;99534.50;;;27.61;53.82
63779;BME280;49923;55.970;37.516;2022-07-06T07:56:15;99534.81;;;28.21;53.48
63779;BME280;49923;55.970;37.516;2022-07-06T07:58:41;99532.59;;;28.56;53.15
63779;BME280;49923;55.970;37.516;2022-07-06T08:01:07;99535.59;;;28.30;52.65
63779;BME280;49923;55.970;37.516;2022-07-06T08:03:33;99538.94;;;28.63;52.91
63779;BME280;49923;55.970;37.516;2022-07-06T08:05:59;99527.53;;;28.92;51.59
63779;BME280;49923;55.970;37.516;2022-07-06T08:08:25;99528.94;;;29.02;50.59
63779;BME280;49923;55.970;37.516;2022-07-06T08:10:51;99531.13;;;28.99;52.22
63779;BME280;49923;55.970;37.516;2022-07-06T08:13:17;99521.91;;;29.39;50.92
63779;BME280;49923;55.970;37.516;2022-07-06T08:15:43;99528.84;;;29.10;47.53
63779;BME280;49923;55.970;37.516;2022-07-06T08:18:09;99531.38;;;28.89;50.64
63779;BME280;49923;55.970;37.516;2022-07-06T08:20:36;99525.00;;;28.90;48.84
63779;BME280;49923;55.970;37.516;2022-07-06T08:23:03;99531.81;;;28.78;49.66
63779;BME280;49923;55.970;37.516;2022-07-06T08:25:30;99535.53;;;29.29;49.74
63779;BME280;49923;55.970;37.516;2022-07-06T08:27:56;99523.69;;;29.09;50.78
63779;BME280;49923;55.970;37.516;2022-07-06T08:30:22;99525.03;;;29.05;50.44
63779;BME280;49923;55.970;37.516;2022-07-06T08:32:48;99528.13;;;29.39;49.50
63779;BME280;49923;55.970;37.516;2022-07-06T08:35:14;99527.31;;;29.16;48.58
63779;BME280;49923;55.970;37.516;2022-07-06T08:37:40;99521.25;;;29.37;49.07
63779;BME280;49923;55.970;37.516;2022-07-06T08:40:09;99529.72;;;29.25;49.27
63779;BME280;49923;55.970;37.516;2022-07-06T08:42:35;99527.00;;;29.11;50.43
63779;BME280;49923;55.970;37.516;2022-07-06T08:45:04;99528.84;;;29.10;49.33
63779;BME280;49923;55.970;37.516;2022-07-06T08:47:31;99524.28;;;28.50;46.66
63779;BME280;49923;55.970;37.516;2022-07-06T08:49:58;99520.72;;;29.70;49.37
63779;BME280;49923;55.970;37.516;2022-07-06T08:52:24;99519.88;;;29.70;47.51
63779;BME280;49923;55.970;37.516;2022-07-06T08:54:50;99519.34;;;29.75;48.44
63779;BME280;49923;55.970;37.516;2022-07-06T08:57:17;99518.22;;;29.02;48.57
63779;BME280;49923;55.970;37.516;2022-07-06T08:59:43;99526.97;;;28.96;50.15
63779;BME280;49923;55.970;37.516;2022-07-06T09:02:10;99519.22;;;29.01;47.83
63779;BME280;49923;55.970;37.516;2022-07-06T09:04:37;99517.81;;;28.90;48.69
63779;BME280;49923;55.970;37.516;2022-07-06T09:07:04;99512.50;;;29.20;48.83
63779;BME280;49923;55.970;37.516;2022-07-06T09:09:30;99522.69;;;29.62;47.38
63779;BME280;49923;55.970;37.516;2022-07-06T09:11:57;99506.47;;;30.14;47.51
63779;BME280;49923;55.970;37.516;2022-07-06T09:14:23;99503.19;;;30.19;47.79
63779;BME280;49923;55.970;37.516;2022-07-06T09:17:01;99505.47;;;30.36;44.81
63779;BME280;49923;55.970;37.516;2022-07-06T09:19:31;99501.00;;;30.43;47.06
63779;BME280;49923;55.970;37.516;2022-07-06T09:21:58;99503.28;;;30.10;45.47
63779;BME280;49923;55.970;37.516;2022-07-06T09:24:24;99504.53;;;29.93;43.26
63779;BME280;49923;55.970;37.516;2022-07-06T09:26:55;99501.19;;;29.77;44.17
63779;BME280;49923;55.970;37.516;2022-07-06T09:29:30;99512.47;;;28.60;45.94
63779;BME280;49923;55.970;37.516;2022-07-06T09:32:02;99509.69;;;28.22;46.42
63779;BME280;49923;55.970;37.516;2022-07-06T09:34:42;99506.94;;;28.38;47.90
63779;BME280;49923;55.970;37.516;2022-07-06T09:37:09;99508.75;;;28.07;47.04
63779;BME280;49923;55.970;37.516;2022-07-06T09:39:35;99499.81;;;28.76;46.25
63779;BME280;49923;55.970;37.516;2022-07-06T09:42:04;99504.09;;;29.23;47.33
63779;BME280;49923;55.970;37.516;2022-07-06T09:44:34;99498.88;;;29.44;47.66
63779;BME280;49923;55.970;37.516;2022-07-06T09:47:05;99499.97;;;29.35;47.59
63779;BME280;49923;55.970;37.516;2022-07-06T09:49:32;99500.16;;;28.96;48.10
63779;BME280;49923;55.970;37.516;2022-07-06T09:52:00;99491.16;;;28.66;46.85
63779;BME280;49923;55.970;37.516;2022-07-06T09:54:27;99504.06;;;28.40;49.97
63779;BME280;49923;55.970;37.516;2022-07-06T09:56:54;99490.38;;;28.35;47.04
63779;BME280;49923;55.970;37.516;2022-07-06T09:59:23;99486.97;;;28.41;47.85
63779;BME280;49923;55.970;37.516;2022-07-06T10:01:51;99494.19;;;28.40;49.09
63779;BME280;49923;55.970;37.516;2022-07-06T10:04:18;99492.03;;;28.59;49.35
63779;BME280;49923;55.970;37.516;2022-07-06T10:06:46;99484.13;;;29.25;47.74
63779;BME280;49923;55.970;37.516;2022-07-06T10:09:13;99480.63;;;28.87;46.88
63779;BME280;49923;55.970;37.516;2022-07-06T10:11:44;99480.78;;;28.63;46.84
63779;BME280;49923;55.970;37.516;2022-07-06T10:14:17;99475.63;;;29.51;44.77
63779;BME280;49923;55.970;37.516;2022-07-06T10:16:45;99473.97;;;30.30;44.49
63779;BME280;49923;55.970;37.516;2022-07-06T10:19:11;99477.41;;;30.03;44.33
63779;BME280;49923;55.970;37.516;2022-07-06T10:21:40;99471.63;;;30.21;44.88
63779;BME280;49923;55.970;37.516;2022-07-06T10:24:07;99470.97;;;30.55;45.28
63779;BME280;49923;55.970;37.516;2022-07-06T10:26:34;99472.53;;;30.91;44.23
63779;BME280;49923;55.970;37.516;2022-07-06T10:29:02;99464.41;;;30.85;42.66
63779;BME280;49923;55.970;37.516;2022-07-06T10:31:30;99462.50;;;30.58;42.90
63779;BME280;49923;55.970;37.516;2022-07-06T10:34:00;99472.41;;;29.70;43.07
63779;BME280;49923;55.970;37.516;2022-07-06T10:36:28;99470.63;;;29.34;44.55
63779;BME280;49923;55.970;37.516;2022-07-06T10:38:54;99460.63;;;30.37;44.18
63779;BME280;49923;55.970;37.516;2022-07-06T10:41:33;99457.78;;;29.73;42.00
63779;BME280;49923;55.970;37.516;2022-07-06T10:44:23;99455.00;;;30.53;43.83
63779;BME280;49923;55.970;37.516;2022-07-06T10:46:57;99458.59;;;30.03;42.63
63779;BME280;49923;55.970;37.516;2022-07-06T10:49:25;99454.53;;;29.78;41.61
63779;BME280;49923;55.970;37.516;2022-07-06T10:51:51;99451.84;;;29.78;43.00
63779;BME280;49923;55.970;37.516;2022-07-06T10:54:19;99455.91;;;29.88;45.39
63779;BME280;49923;55.970;37.516;2022-07-06T10:56:50;99450.84;;;29.64;43.06
63779;BME280;49923;55.970;37.516;2022-07-06T10:59:22;99445.19;;;29.59;43.22
63779;BME280;49923;55.970;37.516;2022-07-06T11:04:43;99435.72;;;30.07;43.54
63779;BME280;49923;55.970;37.516;2022-07-06T11:07:12;99440.22;;;30.42;43.37
63779;BME280;49923;55.970;37.516;2022-07-06T11:09:38;99435.44;;;30.59;41.43
63779;BME280;49923;55.970;37.516;2022-07-06T11:12:17;99428.16;;;30.81;39.60
63779;BME280;49923;55.970;37.516;2022-07-06T11:14:44;99426.03;;;30.48;42.83
63779;BME280;49923;55.970;37.516;2022-07-06T11:17:12;99423.38;;;30.34;42.64
63779;BME280;49923;55.970;37.516;2022-07-06T11:19:38;99433.41;;;31.17;42.79
63779;BME280;49923;55.970;37.516;2022-07-06T11:22:15;99435.22;;;31.38;39.23
63779;BME280;49923;55.970;37.516;2022-07-06T11:24:42;99441.53;;;30.68;42.22
63779;BME280;49923;55.970;37.516;2022-07-06T11:27:08;99437.41;;;31.21;41.75
63779;BME280;49923;55.970;37.516;2022-07-06T11:29:35;99435.81;;;31.33;41.35
63779;BME280;49923;55.970;37.516;2022-07-06T11:32:06;99425.06;;;31.05;39.98
63779;BME280;49923;55.970;37.516;2022-07-06T11:34:37;99429.66;;;30.20;41.30
63779;BME280;49923;55.970;37.516;2022-07-06T11:37:06;99419.88;;;30.55;39.87
63779;BME280;49923;55.970;37.516;2022-07-06T11:39:35;99424.56;;;30.67;40.54
63779;BME280;49923;55.970;37.516;2022-07-06T11:42:02;99419.13;;;31.10;39.90
63779;BME280;49923;55.970;37.516;2022-07-06T11:44:30;99417.56;;;31.28;39.42
63779;BME280;49923;55.970;37.516;2022-07-06T11:46:56;99415.53;;;31.37;39.66
63779;BME280;49923;55.970;37.516;2022-07-06T11:49:24;99413.03;;;31.36;39.45
63779;BME280;49923;55.970;37.516;2022-07-06T11:51:50;99410.19;;;31.44;38.94
63779;BME280;49923;55.970;37.516;2022-07-06T11:54:21;99410.97;;;31.31;37.62
63779;BME280;49923;55.970;37.516;2022-07-06T11:56:58;99409.63;;;31.55;35.69
63779;BME280;49923;55.970;37.516;2022-07-06T11:59:29;99400.06;;;31.11;37.56
63779;BME280;49923;55.970;37.516;2022-07-06T12:04:39;99402.28;;;30.52;38.59
63779;BME280;49923;55.970;37.516;2022-07-06T12:07:07;99412.44;;;30.14;36.64
63779;BME280;49923;55.970;37.516;2022-07-06T12:09:36;99401.13;;;30.19;38.69
63779;BME280;49923;55.970;37.516;2022-07-06T12:12:04;99408.03;;;30.70;39.59
63779;BME280;49923;55.970;37.516;2022-07-06T12:14:32;99407.44;;;31.03;39.04
63779;BME280;49923;55.970;37.516;2022-07-06T12:17:03;99410.34;;;31.36;38.37
63779;BME280;49923;55.970;37.516;2022-07-06T12:19:30;99400.44;;;31.84;40.28
63779;BME280;49923;55.970;37.516;2022-07-06T12:21:56;99401.94;;;31.86;40.75
63779;BME280;49923;55.970;37.516;2022-07-06T12:24:26;99397.78;;;31.90;38.42
63779;BME280;49923;55.970;37.516;2022-07-06T12:26:54;99392.41;;;31.90;37.50
63779;BME280;49923;55.970;37.516;2022-07-06T12:29:21;99398.72;;;31.28;35.27
63779;BME280;49923;55.970;37.516;2022-07-06T12:31:51;99394.63;;;31.74;40.18
63779;BME280;49923;55.970;37.516;2022-07-06T12:34:20;99413.03;;;31.36;38.54
63779;BME280;49923;55.970;37.516;2022-07-06T12:36:54;99401.41;;;31.22;34.86
63779;BME280;49923;55.970;37.516;2022-07-06T12:39:23;99387.88;;;31.09;35.69
63779;BME280;49923;55.970;37.516;2022-07-06T12:41:56;99389.53;;;31.51;36.02
63779;BME280;49923;55.970;37.516;2022-07-06T12:44:26;99381.69;;;32.17;39.26
63779;BME280;49923;55.970;37.516;2022-07-06T12:49:29;99385.75;;;31.80;38.06
63779;BME280;49923;55.970;37.516;2022-07-06T12:54:39;99395.81;;;32.19;33.24
63779;BME280;49923;55.970;37.516;2022-07-06T12:57:19;99396.38;;;31.53;34.29
63779;BME280;49923;55.970;37.516;2022-07-06T13:05:05;99386.06;;;31.22;35.91
63779;BME280;49923;55.970;37.516;2022-07-06T13:07:34;99390.28;;;31.79;38.36
63779;BME280;49923;55.970;37.516;2022-07-06T13:10:05;99393.41;;;31.89;36.63
63779;BME280;49923;55.970;37.516;2022-07-06T13:12:32;99393.44;;;31.48;35.50
63779;BME280;49923;55.970;37.516;2022-07-06T13:14:58;99390.72;;;31.42;38.78
63779;BME280;49923;55.970;37.516;2022-07-06T13:17:24;99384.75;;;30.84;37.06
63779;BME280;49923;55.970;37.516;2022-07-06T13:19:50;99391.53;;;30.52;38.03
63779;BME280;49923;55.970;37.516;2022-07-06T13:22:16;99383.59;;;30.23;39.62
63779;BME280;49923;55.970;37.516;2022-07-06T13:24:42;99382.56;;;30.24;39.92
63779;BME280;49923;55.970;37.516;2022-07-06T13:27:09;99386.38;;;30.50;39.72
63779;BME280;49923;55.970;37.516;2022-07-06T13:29:35;99387.34;;;30.71;39.60
63779;BME280;49923;55.970;37.516;2022-07-06T13:32:02;99372.69;;;30.73;37.22
63779;BME280;49923;55.970;37.516;2022-07-06T13:34:28;99376.28;;;31.08;38.00
63779;BME280;49923;55.970;37.516;2022-07-06T13:36:54;99370.69;;;31.51;38.46
63779;BME280;49923;55.970;37.516;2022-07-06T13:39:20;99366.00;;;31.66;38.75
63779;BME280;49923;55.970;37.516;2022-07-06T13:41:46;99372.59;;;31.57;37.83
63779;BME280;49923;55.970;37.516;2022-07-06T13:44:12;99377.69;;;31.39;38.98
63779;BME280;49923;55.970;37.516;2022-07-06T13:46:39;99371.31;;;31.53;39.88
63779;BME280;49923;55.970;37.516;2022-07-06T13:49:05;99383.84;;;30.98;38.36
63779;BME280;49923;55.970;37.516;2022-07-06T13:51:32;99379.81;;;30.87;39.24
63779;BME280;49923;55.970;37.516;2022-07-06T13:53:59;99372.25;;;30.70;39.68
63779;BME280;49923;55.970;37.516;2022-07-06T13:56:25;99364.88;;;30.78;36.49
63779;BME280;49923;55.970;37.516;2022-07-06T13:58:52;99367.09;;;30.68;37.24
63779;BME280;49923;55.970;37.516;2022-07-06T14:01:18;99368.84;;;30.33;36.55
63779;BME280;49923;55.970;37.516;2022-07-06T14:03:44;99359.53;;;29.93;36.47
63779;BME280;49923;55.970;37.516;2022-07-06T14:06:10;99363.88;;;29.94;37.84
63779;BME280;49923;55.970;37.516;2022-07-06T14:08:37;99356.22;;;30.55;37.00
63779;BME280;49923;55.970;37.516;2022-07-06T14:11:04;99359.69;;;30.49;37.76
63779;BME280;49923;55.970;37.516;2022-07-06T14:13:31;99359.84;;;30.47;37.81
63779;BME280;49923;55.970;37.516;2022-07-06T14:15:57;99354.09;;;30.29;37.51
63779;BME280;49923;55.970;37.516;2022-07-06T14:18:23;99358.72;;;30.14;38.43
63779;BME280;49923;55.970;37.516;2022-07-06T14:20:50;99349.44;;;30.38;38.52
63779;BME280;49923;55.970;37.516;2022-07-06T14:23:17;99351.34;;;30.44;38.55
63779;BME280;49923;55.970;37.516;2022-07-06T14:25:43;99357.13;;;30.20;38.46
63779;BME280;49923;55.970;37.516;2022-07-06T14:28:10;99349.50;;;30.02;39.37
63779;BME280;49923;55.970;37.516;2022-07-06T14:30:37;99345.38;;;29.85;40.14
63779;BME280;49923;55.970;37.516;2022-07-06T14:33:05;99353.47;;;29.70;41.11
63779;BME280;49923;55.970;37.516;2022-07-06T14:35:38;99338.69;;;29.59;41.92
63779;BME280;49923;55.970;37.516;2022-07-06T14:38:04;99338.72;;;29.30;42.36
63779;BME280;49923;55.970;37.516;2022-07-06T14:40:31;99339.94;;;29.27;42.38
63779;BME280;49923;55.970;37.516;2022-07-06T14:42:58;99344.00;;;29.23;42.53
63779;BME280;49923;55.970;37.516;2022-07-06T14:45:24;99343.06;;;29.31;42.70
63779;BME280;49923;55.970;37.516;2022-07-06T14:47:50;99343.06;;;29.31;42.74
63779;BME280;49923;55.970;37.516;2022-07-06T14:50:17;99339.84;;;29.36;42.73
63779;BME280;49923;55.970;37.516;2022-07-06T14:52:43;99338.53;;;29.31;42.93
63779;BME280;49923;55.970;37.516;2022-07-06T14:55:09;99334.66;;;29.34;43.01
63779;BME280;49923;55.970;37.516;2022-07-06T14:57:35;99340.84;;;29.49;42.54
63779;BME280;49923;55.970;37.516;2022-07-06T15:00:02;99337.34;;;29.34;43.25
63779;BME280;49923;55.970;37.516;2022-07-06T15:02:29;99331.88;;;29.78;42.35
63779;BME280;49923;55.970;37.516;2022-07-06T15:04:54;99333.00;;;30.05;41.84
63779;BME280;49923;55.970;37.516;2022-07-06T15:07:21;99335.44;;;30.21;41.82
63779;BME280;49923;55.970;37.516;2022-07-06T15:09:47;99329.44;;;30.19;41.84
63779;BME280;49923;55.970;37.516;2022-07-06T15:12:13;99329.13;;;30.07;41.58
63779;BME280;49923;55.970;37.516;2022-07-06T15:14:39;99328.16;;;29.94;41.31
63779;BME280;49923;55.970;37.516;2022-07-06T15:17:05;99331.38;;;30.04;38.59
63779;BME280;49923;55.970;37.516;2022-07-06T15:19:31;99324.41;;;30.37;40.35
63779;BME280;49923;55.970;37.516;2022-07-06T15:21:57;99323.72;;;30.29;39.23
63779;BME280;49923;55.970;37.516;2022-07-06T15:24:23;99320.66;;;30.10;38.57
63779;BME280;49923;55.970;37.516;2022-07-06T15:26:50;99327.97;;;29.95;37.20
63779;BME280;49923;55.970;37.516;2022-07-06T15:29:16;99322.56;;;30.17;39.58
63779;BME280;49923;55.970;37.516;2022-07-06T15:31:42;99312.59;;;30.10;39.75
63779;BME280;49923;55.970;37.516;2022-07-06T15:34:08;99313.28;;;29.91;40.23
63779;BME280;49923;55.970;37.516;2022-07-06T15:36:35;99302.88;;;29.67;40.49
63779;BME280;49923;55.970;37.516;2022-07-06T15:39:01;99291.88;;;29.62;40.74
63779;BME280;49923;55.970;37.516;2022-07-06T15:41:27;99295.97;;;29.28;40.63
63779;BME280;49923;55.970;37.516;2022-07-06T15:43:53;99298.53;;;29.15;40.81
63779;BME280;49923;55.970;37.516;2022-07-06T15:46:19;99298.25;;;28.96;40.05
63779;BME280;49923;55.970;37.516;2022-07-06T15:48:45;99299.16;;;29.17;40.42
63779;BME280;49923;55.970;37.516;2022-07-06T15:51:11;99292.94;;;29.17;40.44
63779;BME280;49923;55.970;37.516;2022-07-06T15:53:37;99301.75;;;29.25;40.69
63779;BME280;49923;55.970;37.516;2022-07-06T15:56:03;99302.66;;;29.18;40.60
63779;BME280;49923;55.970;37.516;2022-07-06T15:58:29;99299.91;;;29.11;41.44
63779;BME280;49923;55.970;37.516;2022-07-06T16:00:55;99301.47;;;29.20;41.28
63779;BME280;49923;55.970;37.516;2022-07-06T16:03:21;99306.81;;;29.35;41.02
63779;BME280;49923;55.970;37.516;2022-07-06T16:05:50;99303.81;;;29.59;41.32
63779;BME280;49923;55.970;37.516;2022-07-06T16:08:16;99315.38;;;29.81;41.06
63779;BME280;49923;55.970;37.516;2022-07-06T16:10:42;99311.28;;;29.64;41.33
63779;BME280;49923;55.970;37.516;2022-07-06T16:13:08;99307.44;;;29.52;41.16
63779;BME280;49923;55.970;37.516;2022-07-06T16:15:34;99308.63;;;29.85;40.74
63779;BME280;49923;55.970;37.516;2022-07-06T16:18:00;99302.97;;;29.59;40.96
63779;BME280;49923;55.970;37.516;2022-07-06T16:20:26;99303.84;;;29.81;40.78
63779;BME280;49923;55.970;37.516;2022-07-06T16:22:52;99298.06;;;29.84;40.98
63779;BME280;49923;55.970;37.516;2022-07-06T16:25:19;99292.91;;;29.61;41.41
63779;BME280;49923;55.970;37.516;2022-07-06T16:27:48;99293.22;;;29.37;41.99
63779;BME280;49923;55.970;37.516;2022-07-06T16:30:14;99291.44;;;29.29;42.35
63779;BME280;49923;55.970;37.516;2022-07-06T16:32:40;99298.03;;;29.26;42.93
63779;BME280;49923;55.970;37.516;2022-07-06T16:35:06;99300.25;;;29.23;42.77
63779;BME280;49923;55.970;37.516;2022-07-06T16:37:32;99295.50;;;29.04;44.66
63779;BME280;49923;55.970;37.516;2022-07-06T16:39:58;99297.31;;;29.33;43.62
63779;BME280;49923;55.970;37.516;2022-07-06T16:42:24;99303.91;;;28.86;45.94
63779;BME280;49923;55.970;37.516;2022-07-06T16:44:50;99317.13;;;29.02;44.77
63779;BME280;49923;55.970;37.516;2022-07-06T16:47:16;99317.25;;;28.57;47.44
63779;BME280;49923;55.970;37.516;2022-07-06T16:49:42;99322.78;;;28.55;46.04
63779;BME280;49923;55.970;37.516;2022-07-06T16:52:09;99323.28;;;28.36;47.60
63779;BME280;49923;55.970;37.516;2022-07-06T16:54:35;99320.47;;;28.15;47.48
63779;BME280;49923;55.970;37.516;2022-07-06T16:57:01;99317.91;;;28.21;47.23
63779;BME280;49923;55.970;37.516;2022-07-06T16:59:28;99325.19;;;28.04;48.18
63779;BME280;49923;55.970;37.516;2022-07-06T17:01:57;99338.06;;;27.86;48.23
63779;BME280;49923;55.970;37.516;2022-07-06T17:04:23;99333.59;;;27.79;48.42
63779;BME280;49923;55.970;37.516;2022-07-06T17:06:49;99334.88;;;27.60;49.09
63779;BME280;49923;55.970;37.516;2022-07-06T17:09:15;99338.38;;;27.60;49.60
63779;BME280;49923;55.970;37.516;2022-07-06T17:11:41;99348.63;;;27.49;50.80
63779;BME280;49923;55.970;37.516;2022-07-06T17:14:07;99350.13;;;27.51;49.35
63779;BME280;49923;55.970;37.516;2022-07-06T17:16:34;99357.63;;;27.48;49.95
63779;BME280;49923;55.970;37.516;2022-07-06T17:19:00;99353.69;;;27.36;50.27
63779;BME280;49923;55.970;37.516;2022-07-06T17:21:25;99371.56;;;26.80;52.52
63779;BME280;49923;55.970;37.516;2022-07-06T17:23:51;99382.72;;;26.83;51.22
63779;BME280;49923;55.970;37.516;2022-07-06T17:26:17;99395.78;;;26.54;52.08
63779;BME280;49923;55.970;37.516;2022-07-06T17:28:43;99398.09;;;26.41;51.22
63779;BME280;49923;55.970;37.516;2022-07-06T17:31:09;99398.28;;;26.47;52.00
63779;BME280;49923;55.970;37.516;2022-07-06T17:33:35;99393.59;;;26.33;51.61
63779;BME280;49923;55.970;37.516;2022-07-06T17:36:01;99389.09;;;26.26;51.88
63779;BME280;49923;55.970;37.516;2022-07-06T17:38:27;99383.03;;;26.16;51.46
63779;BME280;49923;55.970;37.516;2022-07-06T17:40:56;99378.69;;;26.06;52.39